sensor_id;sensor_type;location;lat;lon;timestamp;temperature;humidity
69932;DHT22;57243;52.064;5.116;2022-10-16T00:02:00;20.40;66.70
69932;DHT22;57243;52.064;5.116;2022-10-16T00:04:26;20.40;66.80
69932;DHT22;57243;52.064;5.116;2022-10-16T00:06:51;20.40;66.70
69932;DHT22;57243;52.064;5.116;2022-10-16T00:09:17;20.40;66.70
69932;DHT22;57243;52.064;5.116;2022-10-16T00:11:42;20.40;66.80
69932;DHT22;57243;52.064;5.116;2022-10-16T00:14:11;20.40;66.80
69932;DHT22;57243;52.064;5.116;2022-10-16T00:16:38;20.40;66.80
69932;DHT22;57243;52.064;5.116;2022-10-16T00:19:04;20.40;66.90
69932;DHT22;57243;52.064;5.116;2022-10-16T00:21:30;20.30;66.90
69932;DHT22;57243;52.064;5.116;2022-10-16T00:24:02;20.40;66.90
69932;DHT22;57243;52.064;5.116;2022-10-16T00:26:31;20.40;66.80
69932;DHT22;57243;52.064;5.116;2022-10-16T00:28:57;20.40;66.80
69932;DHT22;57243;52.064;5.116;2022-10-16T00:31:24;20.40;66.80
69932;DHT22;57243;52.064;5.116;2022-10-16T00:33:50;20.40;66.90
69932;DHT22;57243;52.064;5.116;2022-10-16T00:36:18;20.40;66.80
69932;DHT22;57243;52.064;5.116;2022-10-16T00:38:45;20.40;66.90
69932;DHT22;57243;52.064;5.116;2022-10-16T00:41:14;20.40;66.80
69932;DHT22;57243;52.064;5.116;2022-10-16T00:43:43;20.40;66.80
69932;DHT22;57243;52.064;5.116;2022-10-16T00:46:17;20.40;66.80
69932;DHT22;57243;52.064;5.116;2022-10-16T00:51:21;20.30;66.70
69932;DHT22;57243;52.064;5.116;2022-10-16T00:53:49;20.30;66.60
69932;DHT22;57243;52.064;5.116;2022-10-16T00:56:15;20.30;66.60
69932;DHT22;57243;52.064;5.116;2022-10-16T00:58:41;20.30;66.60
69932;DHT22;57243;52.064;5.116;2022-10-16T01:01:07;20.30;66.70
69932;DHT22;57243;52.064;5.116;2022-10-16T01:03:35;20.30;66.70
69932;DHT22;57243;52.064;5.116;2022-10-16T01:06:23;20.30;66.70
69932;DHT22;57243;52.064;5.116;2022-10-16T01:09:16;20.40;66.70
69932;DHT22;57243;52.064;5.116;2022-10-16T01:11:52;20.40;66.60
69932;DHT22;57243;52.064;5.116;2022-10-16T01:17:28;20.40;66.60
69932;DHT22;57243;52.064;5.116;2022-10-16T01:20:25;20.40;66.50
69932;DHT22;57243;52.064;5.116;2022-10-16T01:28:29;20.40;66.70
69932;DHT22;57243;52.064;5.116;2022-10-16T01:30:59;20.40;66.50
69932;DHT22;57243;52.064;5.116;2022-10-16T01:33:35;20.30;66.60
69932;DHT22;57243;52.064;5.116;2022-10-16T01:36:10;20.40;66.60
69932;DHT22;57243;52.064;5.116;2022-10-16T01:38:39;20.40;66.60
69932;DHT22;57243;52.064;5.116;2022-10-16T01:41:12;20.30;66.60
69932;DHT22;57243;52.064;5.116;2022-10-16T01:43:48;20.40;66.60
69932;DHT22;57243;52.064;5.116;2022-10-16T01:46:17;20.30;66.70
69932;DHT22;57243;52.064;5.116;2022-10-16T01:48:44;20.30;66.70
69932;DHT22;57243;52.064;5.116;2022-10-16T01:51:12;20.30;66.80
69932;DHT22;57243;52.064;5.116;2022-10-16T01:53:39;20.30;66.70
69932;DHT22;57243;52.064;5.116;2022-10-16T01:56:09;20.30;66.70
69932;DHT22;57243;52.064;5.116;2022-10-16T01:58:42;20.30;66.80
69932;DHT22;57243;52.064;5.116;2022-10-16T02:01:11;20.30;66.90
69932;DHT22;57243;52.064;5.116;2022-10-16T02:03:40;20.30;66.70
69932;DHT22;57243;52.064;5.116;2022-10-16T02:06:07;20.30;66.80
69932;DHT22;57243;52.064;5.116;2022-10-16T02:08:33;20.30;66.80
69932;DHT22;57243;52.064;5.116;2022-10-16T02:11:00;20.30;66.80
69932;DHT22;57243;52.064;5.116;2022-10-16T02:13:40;20.30;66.80
69932;DHT22;57243;52.064;5.116;2022-10-16T02:16:09;20.30;66.70
69932;DHT22;57243;52.064;5.116;2022-10-16T02:18:35;20.30;66.70
69932;DHT22;57243;52.064;5.116;2022-10-16T02:26:09;20.30;66.80
69932;DHT22;57243;52.064;5.116;2022-10-16T02:28:46;20.30;66.80
69932;DHT22;57243;52.064;5.116;2022-10-16T02:31:18;20.30;66.70
69932;DHT22;57243;52.064;5.116;2022-10-16T02:33:46;20.30;66.80
69932;DHT22;57243;52.064;5.116;2022-10-16T02:36:12;20.30;66.80
69932;DHT22;57243;52.064;5.116;2022-10-16T02:38:40;20.30;66.70
69932;DHT22;57243;52.064;5.116;2022-10-16T02:41:06;20.30;66.80
69932;DHT22;57243;52.064;5.116;2022-10-16T02:43:31;20.30;66.80
69932;DHT22;57243;52.064;5.116;2022-10-16T02:45:59;20.30;66.70
69932;DHT22;57243;52.064;5.116;2022-10-16T02:48:25;20.30;66.70
69932;DHT22;57243;52.064;5.116;2022-10-16T02:50:50;20.30;66.70
69932;DHT22;57243;52.064;5.116;2022-10-16T02:53:16;20.30;66.70
69932;DHT22;57243;52.064;5.116;2022-10-16T02:55:42;20.30;66.70
69932;DHT22;57243;52.064;5.116;2022-10-16T02:58:07;20.30;66.70
69932;DHT22;57243;52.064;5.116;2022-10-16T03:00:33;20.30;66.50
69932;DHT22;57243;52.064;5.116;2022-10-16T03:02:59;20.30;66.50
69932;DHT22;57243;52.064;5.116;2022-10-16T03:05:24;20.30;66.60
69932;DHT22;57243;52.064;5.116;2022-10-16T03:07:50;20.30;66.50
69932;DHT22;57243;52.064;5.116;2022-10-16T03:10:16;20.30;66.50
69932;DHT22;57243;52.064;5.116;2022-10-16T03:12:41;20.30;66.40
69932;DHT22;57243;52.064;5.116;2022-10-16T03:15:07;20.30;66.50
69932;DHT22;57243;52.064;5.116;2022-10-16T03:17:33;20.30;66.60
69932;DHT22;57243;52.064;5.116;2022-10-16T03:19:59;20.30;66.50
69932;DHT22;57243;52.064;5.116;2022-10-16T03:22:24;20.30;66.60
69932;DHT22;57243;52.064;5.116;2022-10-16T03:24:50;20.30;66.60
69932;DHT22;57243;52.064;5.116;2022-10-16T03:27:16;20.30;66.50
69932;DHT22;57243;52.064;5.116;2022-10-16T03:29:41;20.30;66.50
69932;DHT22;57243;52.064;5.116;2022-10-16T03:32:07;20.30;66.60
69932;DHT22;57243;52.064;5.116;2022-10-16T03:34:32;20.30;66.60
69932;DHT22;57243;52.064;5.116;2022-10-16T03:36:58;20.30;66.70
69932;DHT22;57243;52.064;5.116;2022-10-16T03:39:23;20.30;66.60
69932;DHT22;57243;52.064;5.116;2022-10-16T03:41:49;20.30;66.50
69932;DHT22;57243;52.064;5.116;2022-10-16T03:44:15;20.30;66.60
69932;DHT22;57243;52.064;5.116;2022-10-16T03:46:40;20.30;66.50
69932;DHT22;57243;52.064;5.116;2022-10-16T03:49:06;20.30;66.60
69932;DHT22;57243;52.064;5.116;2022-10-16T03:51:32;20.30;66.60
69932;DHT22;57243;52.064;5.116;2022-10-16T03:53:57;20.30;66.70
69932;DHT22;57243;52.064;5.116;2022-10-16T03:56:23;20.30;66.60
69932;DHT22;57243;52.064;5.116;2022-10-16T03:58:48;20.30;66.60
69932;DHT22;57243;52.064;5.116;2022-10-16T04:01:14;20.30;66.50
69932;DHT22;57243;52.064;5.116;2022-10-16T04:03:39;20.30;66.50
69932;DHT22;57243;52.064;5.116;2022-10-16T04:06:05;20.30;66.50
69932;DHT22;57243;52.064;5.116;2022-10-16T04:08:31;20.30;66.60
69932;DHT22;57243;52.064;5.116;2022-10-16T04:10:59;20.30;66.50
69932;DHT22;57243;52.064;5.116;2022-10-16T04:13:25;20.30;66.60
69932;DHT22;57243;52.064;5.116;2022-10-16T04:15:50;20.30;66.50
69932;DHT22;57243;52.064;5.116;2022-10-16T04:18:16;20.30;66.60
69932;DHT22;57243;52.064;5.116;2022-10-16T04:20:41;20.30;66.60
69932;DHT22;57243;52.064;5.116;2022-10-16T04:23:07;20.30;66.60
69932;DHT22;57243;52.064;5.116;2022-10-16T04:25:32;20.30;66.50
69932;DHT22;57243;52.064;5.116;2022-10-16T04:27:58;20.30;66.60
69932;DHT22;57243;52.064;5.116;2022-10-16T04:30:24;20.30;66.60
69932;DHT22;57243;52.064;5.116;2022-10-16T04:32:51;20.30;66.60
69932;DHT22;57243;52.064;5.116;2022-10-16T04:35:17;20.30;66.70
69932;DHT22;57243;52.064;5.116;2022-10-16T04:37:43;20.30;66.60
69932;DHT22;57243;52.064;5.116;2022-10-16T04:40:09;20.30;66.60
69932;DHT22;57243;52.064;5.116;2022-10-16T04:42:35;20.30;66.70
69932;DHT22;57243;52.064;5.116;2022-10-16T04:45:00;20.30;66.60
69932;DHT22;57243;52.064;5.116;2022-10-16T04:47:26;20.30;66.60
69932;DHT22;57243;52.064;5.116;2022-10-16T04:49:52;20.30;66.60
69932;DHT22;57243;52.064;5.116;2022-10-16T04:52:17;20.30;66.60
69932;DHT22;57243;52.064;5.116;2022-10-16T04:54:44;20.30;66.60
69932;DHT22;57243;52.064;5.116;2022-10-16T04:57:11;20.30;66.60
69932;DHT22;57243;52.064;5.116;2022-10-16T04:59:36;20.30;66.50
69932;DHT22;57243;52.064;5.116;2022-10-16T05:02:02;20.30;66.60
69932;DHT22;57243;52.064;5.116;2022-10-16T05:04:28;20.30;66.60
69932;DHT22;57243;52.064;5.116;2022-10-16T05:06:53;20.30;66.60
69932;DHT22;57243;52.064;5.116;2022-10-16T05:09:19;20.30;66.60
69932;DHT22;57243;52.064;5.116;2022-10-16T05:11:45;20.30;66.50
69932;DHT22;57243;52.064;5.116;2022-10-16T05:14:11;20.30;66.60
69932;DHT22;57243;52.064;5.116;2022-10-16T05:16:36;20.30;66.60
69932;DHT22;57243;52.064;5.116;2022-10-16T05:19:02;20.20;66.60
69932;DHT22;57243;52.064;5.116;2022-10-16T05:21:28;20.30;66.50
69932;DHT22;57243;52.064;5.116;2022-10-16T05:23:53;20.30;66.60
69932;DHT22;57243;52.064;5.116;2022-10-16T05:26:20;20.30;66.60
69932;DHT22;57243;52.064;5.116;2022-10-16T05:28:46;20.30;66.50
69932;DHT22;57243;52.064;5.116;2022-10-16T05:31:11;20.30;66.60
69932;DHT22;57243;52.064;5.116;2022-10-16T05:33:37;20.30;66.60
69932;DHT22;57243;52.064;5.116;2022-10-16T05:36:05;20.30;66.60
69932;DHT22;57243;52.064;5.116;2022-10-16T05:38:33;20.30;66.40
69932;DHT22;57243;52.064;5.116;2022-10-16T05:40:59;20.30;66.60
69932;DHT22;57243;52.064;5.116;2022-10-16T05:43:26;20.30;66.70
69932;DHT22;57243;52.064;5.116;2022-10-16T05:45:57;20.30;66.40
69932;DHT22;57243;52.064;5.116;2022-10-16T05:48:23;20.30;65.70
69932;DHT22;57243;52.064;5.116;2022-10-16T05:51:00;20.30;66.50
69932;DHT22;57243;52.064;5.116;2022-10-16T05:53:30;20.20;66.70
69932;DHT22;57243;52.064;5.116;2022-10-16T05:55:57;20.20;66.50
69932;DHT22;57243;52.064;5.116;2022-10-16T05:58:23;20.20;66.40
69932;DHT22;57243;52.064;5.116;2022-10-16T06:01:00;20.20;66.40
69932;DHT22;57243;52.064;5.116;2022-10-16T06:03:26;20.20;66.40
69932;DHT22;57243;52.064;5.116;2022-10-16T06:05:52;20.20;65.40
69932;DHT22;57243;52.064;5.116;2022-10-16T06:08:19;20.20;66.10
69932;DHT22;57243;52.064;5.116;2022-10-16T06:10:45;20.20;66.10
69932;DHT22;57243;52.064;5.116;2022-10-16T06:13:12;20.20;66.20
69932;DHT22;57243;52.064;5.116;2022-10-16T06:15:39;20.20;66.20
69932;DHT22;57243;52.064;5.116;2022-10-16T06:18:07;20.20;66.10
69932;DHT22;57243;52.064;5.116;2022-10-16T06:20:33;20.20;65.90
69932;DHT22;57243;52.064;5.116;2022-10-16T06:22:58;20.20;66.10
69932;DHT22;57243;52.064;5.116;2022-10-16T06:25:24;20.10;66.10
69932;DHT22;57243;52.064;5.116;2022-10-16T06:27:49;20.10;66.10
69932;DHT22;57243;52.064;5.116;2022-10-16T06:30:15;20.10;66.20
69932;DHT22;57243;52.064;5.116;2022-10-16T06:32:40;20.10;66.10
69932;DHT22;57243;52.064;5.116;2022-10-16T06:35:06;20.20;66.00
69932;DHT22;57243;52.064;5.116;2022-10-16T06:37:32;20.10;65.30
69932;DHT22;57243;52.064;5.116;2022-10-16T06:39:57;20.20;65.70
69932;DHT22;57243;52.064;5.116;2022-10-16T06:42:23;20.20;65.70
69932;DHT22;57243;52.064;5.116;2022-10-16T06:44:49;20.20;65.80
69932;DHT22;57243;52.064;5.116;2022-10-16T06:47:14;20.20;65.60
69932;DHT22;57243;52.064;5.116;2022-10-16T06:49:40;20.20;65.50
69932;DHT22;57243;52.064;5.116;2022-10-16T06:52:05;20.20;65.00
69932;DHT22;57243;52.064;5.116;2022-10-16T06:54:31;20.20;64.70
69932;DHT22;57243;52.064;5.116;2022-10-16T06:56:56;20.20;64.80
69932;DHT22;57243;52.064;5.116;2022-10-16T06:59:22;20.20;65.20
69932;DHT22;57243;52.064;5.116;2022-10-16T07:01:48;20.20;65.00
69932;DHT22;57243;52.064;5.116;2022-10-16T07:04:14;20.20;65.10
69932;DHT22;57243;52.064;5.116;2022-10-16T07:06:39;20.20;64.00
69932;DHT22;57243;52.064;5.116;2022-10-16T07:09:08;20.20;64.90
69932;DHT22;57243;52.064;5.116;2022-10-16T07:11:34;20.20;64.30
69932;DHT22;57243;52.064;5.116;2022-10-16T07:14:00;20.20;65.30
69932;DHT22;57243;52.064;5.116;2022-10-16T07:16:27;20.20;65.80
69932;DHT22;57243;52.064;5.116;2022-10-16T07:18:54;20.20;65.80
69932;DHT22;57243;52.064;5.116;2022-10-16T07:21:24;20.30;64.40
69932;DHT22;57243;52.064;5.116;2022-10-16T07:23:55;20.30;63.70
69932;DHT22;57243;52.064;5.116;2022-10-16T07:26:22;20.30;65.50
69932;DHT22;57243;52.064;5.116;2022-10-16T07:28:48;20.30;65.50
69932;DHT22;57243;52.064;5.116;2022-10-16T07:31:16;20.30;65.60
69932;DHT22;57243;52.064;5.116;2022-10-16T07:33:43;20.30;65.50
69932;DHT22;57243;52.064;5.116;2022-10-16T07:36:10;20.20;65.50
69932;DHT22;57243;52.064;5.116;2022-10-16T07:38:36;20.20;65.50
69932;DHT22;57243;52.064;5.116;2022-10-16T07:41:05;20.20;65.40
69932;DHT22;57243;52.064;5.116;2022-10-16T07:43:31;20.20;65.70
69932;DHT22;57243;52.064;5.116;2022-10-16T07:45:57;20.20;65.70
69932;DHT22;57243;52.064;5.116;2022-10-16T07:48:26;20.30;65.70
69932;DHT22;57243;52.064;5.116;2022-10-16T07:50:52;20.30;65.60
69932;DHT22;57243;52.064;5.116;2022-10-16T07:53:17;20.30;65.60
69932;DHT22;57243;52.064;5.116;2022-10-16T07:55:43;20.30;65.20
69932;DHT22;57243;52.064;5.116;2022-10-16T07:58:09;20.40;64.90
69932;DHT22;57243;52.064;5.116;2022-10-16T08:00:37;20.40;64.60
69932;DHT22;57243;52.064;5.116;2022-10-16T08:03:03;20.40;64.60
69932;DHT22;57243;52.064;5.116;2022-10-16T08:05:29;20.50;64.20
69932;DHT22;57243;52.064;5.116;2022-10-16T08:07:55;20.50;64.60
69932;DHT22;57243;52.064;5.116;2022-10-16T08:10:23;20.50;65.10
69932;DHT22;57243;52.064;5.116;2022-10-16T08:12:50;20.50;64.90
69932;DHT22;57243;52.064;5.116;2022-10-16T08:15:16;20.50;64.40
69932;DHT22;57243;52.064;5.116;2022-10-16T08:17:42;20.50;64.30
69932;DHT22;57243;52.064;5.116;2022-10-16T08:20:08;20.40;63.50
69932;DHT22;57243;52.064;5.116;2022-10-16T08:22:34;20.40;64.00
69932;DHT22;57243;52.064;5.116;2022-10-16T08:24:59;20.40;65.00
69932;DHT22;57243;52.064;5.116;2022-10-16T08:27:25;20.40;65.30
69932;DHT22;57243;52.064;5.116;2022-10-16T08:29:51;20.40;65.10
69932;DHT22;57243;52.064;5.116;2022-10-16T08:32:17;20.50;64.60
69932;DHT22;57243;52.064;5.116;2022-10-16T08:34:42;20.50;64.20
69932;DHT22;57243;52.064;5.116;2022-10-16T08:37:08;20.50;64.90
69932;DHT22;57243;52.064;5.116;2022-10-16T08:39:36;20.40;65.20
69932;DHT22;57243;52.064;5.116;2022-10-16T08:47:43;20.50;65.50
69932;DHT22;57243;52.064;5.116;2022-10-16T08:50:13;20.40;65.50
69932;DHT22;57243;52.064;5.116;2022-10-16T08:52:42;20.40;65.50
69932;DHT22;57243;52.064;5.116;2022-10-16T08:57:49;20.50;64.80
69932;DHT22;57243;52.064;5.116;2022-10-16T09:00:15;20.50;64.10
69932;DHT22;57243;52.064;5.116;2022-10-16T09:05:52;20.50;64.30
69932;DHT22;57243;52.064;5.116;2022-10-16T09:11:29;20.40;64.40
69932;DHT22;57243;52.064;5.116;2022-10-16T09:14:15;20.40;64.90
69932;DHT22;57243;52.064;5.116;2022-10-16T09:16:48;20.40;64.80
69932;DHT22;57243;52.064;5.116;2022-10-16T09:19:27;20.40;64.70
69932;DHT22;57243;52.064;5.116;2022-10-16T09:21:56;20.40;64.70
69932;DHT22;57243;52.064;5.116;2022-10-16T09:24:24;20.40;64.90
69932;DHT22;57243;52.064;5.116;2022-10-16T09:26:50;20.40;65.00
69932;DHT22;57243;52.064;5.116;2022-10-16T09:29:18;20.40;65.10
69932;DHT22;57243;52.064;5.116;2022-10-16T09:31:47;20.40;65.30
69932;DHT22;57243;52.064;5.116;2022-10-16T09:34:30;20.50;65.20
69932;DHT22;57243;52.064;5.116;2022-10-16T09:36:59;20.50;65.30
69932;DHT22;57243;52.064;5.116;2022-10-16T09:39:25;20.50;65.20
69932;DHT22;57243;52.064;5.116;2022-10-16T09:41:51;20.50;65.10
69932;DHT22;57243;52.064;5.116;2022-10-16T09:44:29;20.50;65.10
69932;DHT22;57243;52.064;5.116;2022-10-16T09:47:12;20.50;65.10
69932;DHT22;57243;52.064;5.116;2022-10-16T09:49:49;20.50;64.80
69932;DHT22;57243;52.064;5.116;2022-10-16T09:52:15;20.50;64.90
69932;DHT22;57243;52.064;5.116;2022-10-16T09:54:55;20.50;65.00
69932;DHT22;57243;52.064;5.116;2022-10-16T09:57:21;20.50;65.00
69932;DHT22;57243;52.064;5.116;2022-10-16T09:59:52;20.50;65.00
69932;DHT22;57243;52.064;5.116;2022-10-16T10:02:29;20.50;64.70
69932;DHT22;57243;52.064;5.116;2022-10-16T10:04:55;20.50;64.60
69932;DHT22;57243;52.064;5.116;2022-10-16T10:07:33;20.50;64.60
69932;DHT22;57243;52.064;5.116;2022-10-16T10:10:05;20.60;64.40
69932;DHT22;57243;52.064;5.116;2022-10-16T10:12:32;20.60;64.50
69932;DHT22;57243;52.064;5.116;2022-10-16T10:15:06;20.60;64.40
69932;DHT22;57243;52.064;5.116;2022-10-16T10:17:33;20.60;64.40
69932;DHT22;57243;52.064;5.116;2022-10-16T10:20:00;20.70;64.50
69932;DHT22;57243;52.064;5.116;2022-10-16T10:22:40;20.70;64.70
69932;DHT22;57243;52.064;5.116;2022-10-16T10:27:59;20.80;65.50
69932;DHT22;57243;52.064;5.116;2022-10-16T10:36:22;20.90;65.70
69932;DHT22;57243;52.064;5.116;2022-10-16T10:38:54;20.90;65.50
69932;DHT22;57243;52.064;5.116;2022-10-16T10:53:30;21.00;65.70
69932;DHT22;57243;52.064;5.116;2022-10-16T10:56:08;21.00;65.80
69932;DHT22;57243;52.064;5.116;2022-10-16T11:06:49;21.00;65.00
69932;DHT22;57243;52.064;5.116;2022-10-16T11:09:20;21.00;65.00
69932;DHT22;57243;52.064;5.116;2022-10-16T11:11:58;21.00;65.00
69932;DHT22;57243;52.064;5.116;2022-10-16T11:14:34;21.00;64.80
69932;DHT22;57243;52.064;5.116;2022-10-16T11:17:10;20.90;64.70
69932;DHT22;57243;52.064;5.116;2022-10-16T11:19:51;21.00;64.70
69932;DHT22;57243;52.064;5.116;2022-10-16T11:22:32;21.00;64.70
69932;DHT22;57243;52.064;5.116;2022-10-16T11:25:11;20.90;64.70
69932;DHT22;57243;52.064;5.116;2022-10-16T11:30:22;20.90;64.60
69932;DHT22;57243;52.064;5.116;2022-10-16T11:38:09;20.90;64.20
69932;DHT22;57243;52.064;5.116;2022-10-16T11:40:39;21.00;64.10
69932;DHT22;57243;52.064;5.116;2022-10-16T11:45:43;21.00;63.80
69932;DHT22;57243;52.064;5.116;2022-10-16T11:53:51;21.00;63.70
69932;DHT22;57243;52.064;5.116;2022-10-16T11:56:20;21.10;63.60
69932;DHT22;57243;52.064;5.116;2022-10-16T11:58:59;21.10;63.50
69932;DHT22;57243;52.064;5.116;2022-10-16T12:01:45;21.10;63.40
69932;DHT22;57243;52.064;5.116;2022-10-16T12:07:08;21.10;63.20
69932;DHT22;57243;52.064;5.116;2022-10-16T12:09:38;21.20;63.10
69932;DHT22;57243;52.064;5.116;2022-10-16T12:12:04;21.20;63.10
69932;DHT22;57243;52.064;5.116;2022-10-16T12:14:36;21.20;63.00
69932;DHT22;57243;52.064;5.116;2022-10-16T12:17:27;21.20;62.90
69932;DHT22;57243;52.064;5.116;2022-10-16T12:22:37;21.20;62.80
69932;DHT22;57243;52.064;5.116;2022-10-16T12:25:32;21.20;62.80
69932;DHT22;57243;52.064;5.116;2022-10-16T12:30:32;21.20;62.50
69932;DHT22;57243;52.064;5.116;2022-10-16T12:33:02;21.20;62.50
69932;DHT22;57243;52.064;5.116;2022-10-16T12:35:34;21.30;62.50
69932;DHT22;57243;52.064;5.116;2022-10-16T12:38:14;21.30;62.50
69932;DHT22;57243;52.064;5.116;2022-10-16T12:40:40;21.20;62.50
69932;DHT22;57243;52.064;5.116;2022-10-16T12:43:38;21.30;62.40
69932;DHT22;57243;52.064;5.116;2022-10-16T12:46:19;21.30;62.40
69932;DHT22;57243;52.064;5.116;2022-10-16T12:48:45;21.30;62.20
69932;DHT22;57243;52.064;5.116;2022-10-16T12:51:33;21.30;62.10
69932;DHT22;57243;52.064;5.116;2022-10-16T12:54:11;21.30;62.10
69932;DHT22;57243;52.064;5.116;2022-10-16T12:59:44;21.30;62.00
69932;DHT22;57243;52.064;5.116;2022-10-16T13:11:00;21.30;61.90
69932;DHT22;57243;52.064;5.116;2022-10-16T13:14:06;21.30;61.90
69932;DHT22;57243;52.064;5.116;2022-10-16T13:16:57;21.40;61.90
69932;DHT22;57243;52.064;5.116;2022-10-16T13:25:23;21.40;62.00
69932;DHT22;57243;52.064;5.116;2022-10-16T13:28:02;21.40;62.00
69932;DHT22;57243;52.064;5.116;2022-10-16T13:30:41;21.40;62.00
69932;DHT22;57243;52.064;5.116;2022-10-16T13:33:14;21.40;61.90
69932;DHT22;57243;52.064;5.116;2022-10-16T13:35:51;21.40;61.90
69932;DHT22;57243;52.064;5.116;2022-10-16T13:38:23;21.40;61.80
69932;DHT22;57243;52.064;5.116;2022-10-16T13:46:13;21.30;61.80
69932;DHT22;57243;52.064;5.116;2022-10-16T13:48:39;21.30;61.80
69932;DHT22;57243;52.064;5.116;2022-10-16T13:51:14;21.30;61.80
69932;DHT22;57243;52.064;5.116;2022-10-16T13:53:41;21.30;61.80
69932;DHT22;57243;52.064;5.116;2022-10-16T13:56:20;21.20;61.90
69932;DHT22;57243;52.064;5.116;2022-10-16T13:58:46;21.20;61.80
69932;DHT22;57243;52.064;5.116;2022-10-16T14:01:31;21.20;61.80
69932;DHT22;57243;52.064;5.116;2022-10-16T14:04:08;21.20;61.90
69932;DHT22;57243;52.064;5.116;2022-10-16T14:06:36;21.20;61.90
69932;DHT22;57243;52.064;5.116;2022-10-16T14:09:07;21.20;61.90
69932;DHT22;57243;52.064;5.116;2022-10-16T14:12:00;21.10;61.90
69932;DHT22;57243;52.064;5.116;2022-10-16T14:14:24;21.10;62.00
69932;DHT22;57243;52.064;5.116;2022-10-16T14:16:52;21.10;62.00
69932;DHT22;57243;52.064;5.116;2022-10-16T14:21:47;21.10;62.00
69932;DHT22;57243;52.064;5.116;2022-10-16T14:24:33;21.10;61.70
69932;DHT22;57243;52.064;5.116;2022-10-16T14:27:01;21.00;61.60
69932;DHT22;57243;52.064;5.116;2022-10-16T14:29:29;21.10;61.70
69932;DHT22;57243;52.064;5.116;2022-10-16T14:32:05;21.10;61.70
69932;DHT22;57243;52.064;5.116;2022-10-16T14:34:32;21.10;61.80
69932;DHT22;57243;52.064;5.116;2022-10-16T14:37:14;21.10;62.00
69932;DHT22;57243;52.064;5.116;2022-10-16T14:39:41;21.10;62.10
69932;DHT22;57243;52.064;5.116;2022-10-16T14:42:17;21.10;62.10
69932;DHT22;57243;52.064;5.116;2022-10-16T14:44:45;21.10;62.20
69932;DHT22;57243;52.064;5.116;2022-10-16T14:47:17;21.10;62.10
69932;DHT22;57243;52.064;5.116;2022-10-16T14:49:48;21.10;62.10
69932;DHT22;57243;52.064;5.116;2022-10-16T14:52:14;21.20;62.50
69932;DHT22;57243;52.064;5.116;2022-10-16T14:54:40;21.20;62.30
69932;DHT22;57243;52.064;5.116;2022-10-16T14:57:15;21.20;62.20
69932;DHT22;57243;52.064;5.116;2022-10-16T14:59:42;21.20;62.10
69932;DHT22;57243;52.064;5.116;2022-10-16T15:04:49;21.20;62.10
69932;DHT22;57243;52.064;5.116;2022-10-16T15:07:14;21.20;62.10
69932;DHT22;57243;52.064;5.116;2022-10-16T15:09:40;21.20;62.00
69932;DHT22;57243;52.064;5.116;2022-10-16T15:12:07;21.30;61.90
69932;DHT22;57243;52.064;5.116;2022-10-16T15:14:32;21.30;62.10
69932;DHT22;57243;52.064;5.116;2022-10-16T15:16:58;21.30;62.10
69932;DHT22;57243;52.064;5.116;2022-10-16T15:19:24;21.30;62.00
69932;DHT22;57243;52.064;5.116;2022-10-16T15:21:49;21.30;62.10
69932;DHT22;57243;52.064;5.116;2022-10-16T15:24:16;21.30;62.10
69932;DHT22;57243;52.064;5.116;2022-10-16T15:26:41;21.30;61.80
69932;DHT22;57243;52.064;5.116;2022-10-16T15:29:07;21.30;61.50
69932;DHT22;57243;52.064;5.116;2022-10-16T15:31:34;21.30;61.50
69932;DHT22;57243;52.064;5.116;2022-10-16T15:33:59;21.30;61.00
69932;DHT22;57243;52.064;5.116;2022-10-16T15:36:32;21.20;61.00
69932;DHT22;57243;52.064;5.116;2022-10-16T15:39:03;21.20;61.00
69932;DHT22;57243;52.064;5.116;2022-10-16T15:41:29;21.20;61.10
69932;DHT22;57243;52.064;5.116;2022-10-16T15:43:54;21.20;59.60
69932;DHT22;57243;52.064;5.116;2022-10-16T15:46:23;21.20;57.90
69932;DHT22;57243;52.064;5.116;2022-10-16T15:48:50;21.10;57.00
69932;DHT22;57243;52.064;5.116;2022-10-16T15:51:16;21.10;56.70
69932;DHT22;57243;52.064;5.116;2022-10-16T15:53:43;21.10;57.40
69932;DHT22;57243;52.064;5.116;2022-10-16T15:56:11;21.00;57.40
69932;DHT22;57243;52.064;5.116;2022-10-16T15:58:38;21.10;57.30
69932;DHT22;57243;52.064;5.116;2022-10-16T16:01:03;21.00;57.80
69932;DHT22;57243;52.064;5.116;2022-10-16T16:03:32;21.10;58.00
69932;DHT22;57243;52.064;5.116;2022-10-16T16:06:03;21.10;58.30
69932;DHT22;57243;52.064;5.116;2022-10-16T16:08:29;21.10;58.60
69932;DHT22;57243;52.064;5.116;2022-10-16T16:11:07;21.00;59.00
69932;DHT22;57243;52.064;5.116;2022-10-16T16:13:33;21.00;59.30
69932;DHT22;57243;52.064;5.116;2022-10-16T16:15:59;21.10;59.70
69932;DHT22;57243;52.064;5.116;2022-10-16T16:18:25;21.10;59.90
69932;DHT22;57243;52.064;5.116;2022-10-16T16:20:52;21.10;59.80
69932;DHT22;57243;52.064;5.116;2022-10-16T16:23:17;21.10;60.30
69932;DHT22;57243;52.064;5.116;2022-10-16T16:25:44;21.10;60.10
69932;DHT22;57243;52.064;5.116;2022-10-16T16:28:10;21.10;60.50
69932;DHT22;57243;52.064;5.116;2022-10-16T16:30:39;21.20;60.80
69932;DHT22;57243;52.064;5.116;2022-10-16T16:33:09;21.20;61.20
69932;DHT22;57243;52.064;5.116;2022-10-16T16:35:35;21.30;61.20
69932;DHT22;57243;52.064;5.116;2022-10-16T16:38:00;21.30;61.30
69932;DHT22;57243;52.064;5.116;2022-10-16T16:40:27;21.30;61.00
69932;DHT22;57243;52.064;5.116;2022-10-16T16:42:53;21.30;61.10
69932;DHT22;57243;52.064;5.116;2022-10-16T16:45:18;21.30;61.30
69932;DHT22;57243;52.064;5.116;2022-10-16T16:47:44;21.30;61.20
69932;DHT22;57243;52.064;5.116;2022-10-16T16:50:09;21.20;61.10
69932;DHT22;57243;52.064;5.116;2022-10-16T16:52:35;21.20;61.20
69932;DHT22;57243;52.064;5.116;2022-10-16T16:55:01;21.20;61.00
69932;DHT22;57243;52.064;5.116;2022-10-16T16:57:27;21.20;60.60
69932;DHT22;57243;52.064;5.116;2022-10-16T16:59:52;21.20;60.70
69932;DHT22;57243;52.064;5.116;2022-10-16T17:02:18;21.20;60.80
69932;DHT22;57243;52.064;5.116;2022-10-16T17:04:44;21.10;61.00
69932;DHT22;57243;52.064;5.116;2022-10-16T17:07:09;21.10;61.10
69932;DHT22;57243;52.064;5.116;2022-10-16T17:09:35;21.10;61.10
69932;DHT22;57243;52.064;5.116;2022-10-16T17:12:01;21.00;61.20
69932;DHT22;57243;52.064;5.116;2022-10-16T17:14:26;21.00;61.20
69932;DHT22;57243;52.064;5.116;2022-10-16T17:16:52;20.90;61.30
69932;DHT22;57243;52.064;5.116;2022-10-16T17:19:19;20.90;61.30
69932;DHT22;57243;52.064;5.116;2022-10-16T17:21:48;21.00;61.40
69932;DHT22;57243;52.064;5.116;2022-10-16T17:24:14;21.00;61.70
69932;DHT22;57243;52.064;5.116;2022-10-16T17:26:40;20.90;62.00
69932;DHT22;57243;52.064;5.116;2022-10-16T17:29:11;21.00;61.90
69932;DHT22;57243;52.064;5.116;2022-10-16T17:31:37;21.00;62.10
69932;DHT22;57243;52.064;5.116;2022-10-16T17:34:05;21.00;62.10